Time;durP1;ratioP1;P1;durP2;ratioP2;P2;SDS_P1;SDS_P2;PMS_P1;PMS_P2;Temp;Humidity;BMP_temperature;BMP_pressure;BME280_temperature;BME280_humidity;BME280_pressure;Samples;Min_cycle;Max_cycle;Signal;HPM_P1;HPM_P2
2022/05/11 00:01:52;;;;;;;4.07;2.40;;;;;;;16.49;54.04;101225.31;5057967;28;20120;-81
2022/05/11 00:04:18;;;;;;;6.45;2.45;;;;;;;16.48;53.97;101218.34;5062808;28;20016;-80
2022/05/11 00:06:43;;;;;;;4.10;2.40;;;;;;;16.48;54.01;101220.13;5062197;28;20028;-81
2022/05/11 00:09:11;;;;;;;6.00;2.50;;;;;;;16.47;53.81;101216.63;5062565;28;20028;-81
2022/05/11 00:11:37;;;;;;;6.65;2.33;;;;;;;16.47;54.24;101216.63;5065998;28;20135;-81
2022/05/11 00:14:03;;;;;;;4.00;2.25;;;;;;;16.46;54.22;101214.94;5056554;28;20199;-81
2022/05/11 00:16:30;;;;;;;4.93;2.38;;;;;;;16.43;54.55;101220.31;5065529;28;20086;-81
2022/05/11 00:18:55;;;;;;;4.95;2.42;;;;;;;16.42;54.77;101210.72;5056442;28;20063;-81
2022/05/11 00:21:21;;;;;;;5.97;2.38;;;;;;;16.42;54.92;101207.25;5063344;28;20056;-80
2022/05/11 00:23:47;;;;;;;6.88;2.83;;;;;;;16.40;54.95;101204.69;5063526;28;20456;-81
2022/05/11 00:26:12;;;;;;;6.80;2.63;;;;;;;16.39;54.99;101197.75;5062293;28;20488;-81
2022/05/11 00:28:38;;;;;;;8.18;3.03;;;;;;;16.39;54.99;101195.13;5057999;28;20434;-81
2022/05/11 00:31:04;;;;;;;4.38;2.40;;;;;;;16.38;55.48;101199.53;5061619;28;20037;-80
2022/05/11 00:33:30;;;;;;;3.90;2.30;;;;;;;16.36;55.27;101187.38;5063654;28;20025;-81
2022/05/11 00:35:56;;;;;;;7.28;2.70;;;;;;;16.34;55.31;101184.81;5062790;28;20415;-81
2022/05/11 00:38:26;;;;;;;5.60;2.50;;;;;;;16.33;54.91;101187.53;5059691;28;20028;-80
2022/05/11 00:40:57;;;;;;;5.53;2.42;;;;;;;16.31;55.12;101189.34;5057095;28;20036;-81
2022/05/11 00:43:32;;;;;;;3.67;2.50;;;;;;;16.30;54.82;101182.41;5062056;28;20043;-80
2022/05/11 00:46:25;;;;;;;3.88;2.22;;;;;;;16.29;54.29;101176.31;5060884;28;20074;-81
2022/05/11 00:51:42;;;;;;;6.38;2.42;;;;;;;16.27;54.87;101172.91;5063464;28;20047;-81
2022/05/11 00:54:09;;;;;;;4.63;2.30;;;;;;;16.26;54.64;101170.31;5059601;28;20478;-81
2022/05/11 00:56:37;;;;;;;4.25;2.70;;;;;;;16.24;54.92;101158.13;5060817;28;20058;-80
2022/05/11 00:59:10;;;;;;;7.68;2.80;;;;;;;16.23;54.98;101159.03;5064655;28;20031;-80
2022/05/11 01:01:36;;;;;;;4.95;2.60;;;;;;;16.24;54.77;101157.28;5065520;28;20036;-81
2022/05/11 01:04:07;;;;;;;4.07;2.30;;;;;;;16.23;54.16;101153.78;5059155;28;20043;-80
2022/05/11 01:06:33;;;;;;;5.70;2.50;;;;;;;16.24;54.37;101163.38;5060451;28;20017;-81
2022/05/11 01:09:01;;;;;;;3.70;2.53;;;;;;;16.23;54.44;101156.41;5057829;28;20490;-81
2022/05/11 01:11:27;;;;;;;3.70;2.50;;;;;;;16.23;54.20;101161.66;5059155;28;20189;-80
2022/05/11 01:13:53;;;;;;;3.95;2.20;;;;;;;16.23;54.19;101153.78;5059569;28;20503;-80
2022/05/11 01:16:18;;;;;;;6.22;2.17;;;;;;;16.25;54.19;101151.13;5061685;28;20032;-80
2022/05/11 01:18:44;;;;;;;3.03;2.10;;;;;;;16.24;53.86;101157.28;5063293;28;20017;-80
2022/05/11 01:21:10;;;;;;;4.95;2.28;;;;;;;16.25;53.56;101145.84;5063263;28;20028;-80
2022/05/11 01:23:47;;;;;;;4.65;1.90;;;;;;;16.27;53.14;101148.41;5059440;28;20025;-81
2022/05/11 01:26:15;;;;;;;5.57;1.85;;;;;;;16.26;53.41;101150.19;5059112;28;20111;-80
2022/05/11 01:28:43;;;;;;;3.13;1.63;;;;;;;16.28;52.84;101136.97;5061630;28;20051;-81
2022/05/11 01:31:11;;;;;;;5.68;1.95;;;;;;;16.28;53.39;101136.97;5061122;28;20040;-81
2022/05/11 01:33:40;;;;;;;6.28;2.00;;;;;;;16.28;53.59;101132.59;5060542;28;20059;-81
2022/05/11 01:36:13;;;;;;;7.90;1.80;;;;;;;16.28;53.58;101132.59;5059091;28;20025;-80
2022/05/11 01:38:46;;;;;;;3.60;1.90;;;;;;;16.28;53.23;101131.72;5056827;28;20039;-80
2022/05/11 01:41:18;;;;;;;3.08;1.80;;;;;;;16.27;54.01;101138.78;5062572;28;20020;-81
2022/05/11 01:43:43;;;;;;;2.85;2.03;;;;;;;16.28;53.71;101123.84;5058341;28;20484;-81
2022/05/11 01:46:10;;;;;;;2.83;2.00;;;;;;;16.28;54.07;101131.72;5058779;28;20021;-81
2022/05/11 01:48:35;;;;;;;3.90;1.90;;;;;;;16.27;54.26;101133.53;5065315;28;20158;-81
2022/05/11 01:51:01;;;;;;;3.72;1.85;;;;;;;16.27;54.13;101130.03;5060077;28;20040;-81
2022/05/11 01:53:26;;;;;;;4.03;1.90;;;;;;;16.26;54.06;101128.31;5058804;28;20121;-81
2022/05/11 01:55:51;;;;;;;3.65;2.00;;;;;;;16.25;54.42;101130.09;5060904;28;20446;-81
2022/05/11 01:58:18;;;;;;;6.53;2.22;;;;;;;16.26;54.17;101128.31;5061747;28;20052;-81
2022/05/11 02:00:45;;;;;;;2.90;1.88;;;;;;;16.26;54.78;101125.69;5062662;28;20032;-81
2022/05/11 02:03:12;;;;;;;4.18;1.90;;;;;;;16.25;54.44;101124.84;5054973;28;20025;-81
2022/05/11 02:08:22;;;;;;;3.92;1.90;;;;;;;16.23;54.54;101122.28;5061769;28;20039;-81
2022/05/11 02:10:47;;;;;;;3.33;1.90;;;;;;;16.22;54.92;101123.22;5065264;28;20048;-81
2022/05/11 02:13:13;;;;;;;4.03;2.00;;;;;;;16.22;54.64;101123.22;5062640;28;20024;-81
2022/05/11 02:15:39;;;;;;;7.60;2.33;;;;;;;16.22;54.86;101125.84;5067212;28;20368;-80
2022/05/11 02:18:05;;;;;;;5.68;2.05;;;;;;;16.20;54.98;101119.81;5065825;28;20035;-81
2022/05/11 02:20:31;;;;;;;5.50;2.00;;;;;;;16.20;55.13;101124.19;5065420;28;20064;-81
2022/05/11 02:22:57;;;;;;;6.15;2.25;;;;;;;16.19;55.07;101123.38;5069467;28;20480;-81
2022/05/11 02:25:22;;;;;;;4.78;2.05;;;;;;;16.20;55.35;101118.94;5070660;28;20081;-81
2022/05/11 02:27:49;;;;;;;4.28;2.30;;;;;;;16.17;55.63;101113.84;5071074;28;20025;-81
2022/05/11 02:30:19;;;;;;;7.45;2.40;;;;;;;16.15;55.54;101106.03;5072559;28;20032;-80
2022/05/11 02:32:44;;;;;;;3.95;2.20;;;;;;;16.14;55.60;101103.50;5068015;28;20036;-81
2022/05/11 02:35:12;;;;;;;3.67;2.20;;;;;;;16.13;55.77;101102.63;5070184;28;20476;-81
2022/05/11 02:37:47;;;;;;;5.03;2.45;;;;;;;16.12;55.78;101111.44;5065508;28;20032;-81
2022/05/11 02:40:18;;;;;;;4.85;2.40;;;;;;;16.08;55.94;101110.72;5070611;28;20038;-80
2022/05/11 02:42:44;;;;;;;4.10;2.20;;;;;;;16.09;55.89;101116.81;5069843;28;20035;-81
2022/05/11 02:45:11;;;;;;;6.30;2.20;;;;;;;16.07;56.08;101110.78;5068479;28;20062;-80
2022/05/11 02:47:36;;;;;;;10.18;2.30;;;;;;;16.06;55.91;101111.69;5080410;28;20051;-80
2022/05/11 02:50:05;;;;;;;3.78;2.08;;;;;;;16.04;56.08;101108.31;5071059;28;20480;-80
2022/05/11 02:52:30;;;;;;;4.45;2.22;;;;;;;16.03;55.90;101117.94;5071342;28;20508;-81
2022/05/11 02:54:56;;;;;;;3.78;2.00;;;;;;;16.03;56.11;101111.84;5064625;28;20107;-81
2022/05/11 02:57:21;;;;;;;7.88;2.30;;;;;;;16.01;56.12;101105.81;5069219;28;20020;-80
2022/05/11 02:59:49;;;;;;;3.63;2.17;;;;;;;16.00;56.08;101106.72;5074191;28;20498;-80
2022/05/11 03:02:17;;;;;;;3.10;2.00;;;;;;;16.00;56.10;101107.56;5061923;28;20035;-80
2022/05/11 03:04:42;;;;;;;4.00;2.22;;;;;;;16.00;55.98;101101.47;5081046;28;20505;-81
2022/05/11 03:07:07;;;;;;;5.38;2.20;;;;;;;16.00;55.64;101101.47;5072723;28;20025;-80
2022/05/11 03:09:32;;;;;;;6.72;2.97;;;;;;;16.00;55.79;101102.31;5068042;28;20028;-80
2022/05/11 03:11:58;;;;;;;7.63;2.40;;;;;;;16.01;55.79;101100.56;5074746;28;20050;-80
2022/05/11 03:14:23;;;;;;;5.90;2.17;;;;;;;15.99;56.00;101098.00;5065647;28;20024;-80
2022/05/11 03:16:48;;;;;;;6.05;2.30;;;;;;;16.00;55.51;101093.59;5075822;28;20024;-80
2022/05/11 03:19:13;;;;;;;3.97;2.20;;;;;;;15.99;55.66;101089.28;5066837;28;20444;-81
2022/05/11 03:21:39;;;;;;;4.00;2.03;;;;;;;15.99;55.57;101092.75;5065732;28;20024;-81
2022/05/11 03:24:04;;;;;;;2.58;1.88;;;;;;;16.00;55.39;101090.97;5067270;28;20035;-80
2022/05/11 03:26:29;;;;;;;4.53;2.20;;;;;;;15.99;55.59;101087.50;5066729;28;20429;-80
2022/05/11 03:28:56;;;;;;;3.90;2.15;;;;;;;16.00;55.22;101083.13;5066924;28;20016;-80
2022/05/11 03:31:21;;;;;;;5.80;2.28;;;;;;;15.98;55.18;101071.84;5067877;28;20059;-81
2022/05/11 03:36:31;;;;;;;3.47;1.73;;;;;;;15.98;55.22;101067.41;5067347;28;20135;-80
2022/05/11 03:38:56;;;;;;;2.63;1.73;;;;;;;15.98;54.68;101070.03;5063534;28;20108;-80
2022/05/11 03:41:21;;;;;;;3.08;1.90;;;;;;;15.97;54.50;101067.50;5067574;28;20027;-80
2022/05/11 03:43:47;;;;;;;3.67;1.70;;;;;;;15.97;54.08;101075.38;5082834;28;20060;-80
2022/05/11 03:46:12;;;;;;;3.60;1.92;;;;;;;15.98;54.05;101069.22;5068922;28;20025;-80
2022/05/11 03:48:37;;;;;;;3.08;1.50;;;;;;;15.98;53.70;101071.84;5068233;28;20048;-80
2022/05/11 03:51:04;;;;;;;3.72;1.80;;;;;;;15.98;53.80;101058.72;5061979;28;20039;-80
2022/05/11 03:53:31;;;;;;;2.38;1.40;;;;;;;15.98;54.15;101061.34;5066648;28;20104;-81
2022/05/11 03:55:56;;;;;;;2.60;1.50;;;;;;;15.99;53.72;101063.03;5063223;28;20040;-80
2022/05/11 03:58:22;;;;;;;2.40;1.50;;;;;;;15.98;53.89;101059.53;5066834;28;20468;-81
2022/05/11 04:00:47;;;;;;;3.72;1.65;;;;;;;15.99;53.54;101057.78;5065671;28;20032;-80
2022/05/11 04:03:12;;;;;;;2.85;1.55;;;;;;;15.98;53.65;101056.09;5065894;28;20115;-80
2022/05/11 04:05:38;;;;;;;4.43;1.60;;;;;;;15.98;53.89;101053.47;5065328;28;20111;-80
2022/05/11 04:08:03;;;;;;;2.90;1.48;;;;;;;15.96;54.01;101057.91;5065714;28;20027;-80
2022/05/11 04:10:29;;;;;;;2.67;1.58;;;;;;;15.97;53.84;101055.22;5067852;28;20048;-80
2022/05/11 04:12:54;;;;;;;3.58;1.30;;;;;;;15.98;54.00;101056.09;5074007;28;20024;-80
2022/05/11 04:15:19;;;;;;;3.55;1.58;;;;;;;15.98;53.96;101053.47;5072547;28;20552;-80
2022/05/11 04:17:46;;;;;;;5.35;1.30;;;;;;;15.98;53.96;101058.72;5069610;28;20025;-80
2022/05/11 04:20:17;;;;;;;2.58;1.30;;;;;;;15.99;53.92;101061.25;5069281;28;20498;-80
2022/05/11 04:22:43;;;;;;;3.40;1.50;;;;;;;16.00;53.97;101054.25;5072777;28;20240;-80
2022/05/11 04:25:10;;;;;;;3.63;1.40;;;;;;;15.98;54.05;101048.22;5071031;28;20164;-80
2022/05/11 04:27:36;;;;;;;2.10;1.30;;;;;;;15.98;54.38;101050.84;5075714;28;20027;-81
2022/05/11 04:30:04;;;;;;;3.22;1.50;;;;;;;16.00;54.24;101043.75;5073175;28;20035;-80
2022/05/11 04:32:29;;;;;;;5.32;1.67;;;;;;;15.98;54.30;101041.19;5069143;28;20020;-80
2022/05/11 04:34:54;;;;;;;2.53;1.20;;;;;;;15.98;54.51;101043.81;5069423;28;20475;-80
2022/05/11 04:37:20;;;;;;;3.42;1.38;;;;;;;15.99;54.41;101052.53;5070121;28;20024;-80
2022/05/11 04:39:45;;;;;;;3.47;1.45;;;;;;;15.99;54.47;101052.53;5076710;28;20121;-81
2022/05/11 04:42:11;;;;;;;2.38;1.35;;;;;;;15.99;54.75;101047.28;5073543;28;20025;-81
2022/05/11 04:44:37;;;;;;;2.20;1.60;;;;;;;15.99;54.86;101052.53;5069984;28;20491;-80
2022/05/11 04:47:10;;;;;;;5.63;1.52;;;;;;;15.99;54.58;101055.16;5067940;28;20055;-80
2022/05/11 04:49:36;;;;;;;2.95;1.60;;;;;;;15.99;54.83;101047.28;5069364;28;20056;-80
2022/05/11 04:52:07;;;;;;;4.30;1.50;;;;;;;15.98;54.64;101050.84;5067001;28;20540;-81
2022/05/11 04:54:35;;;;;;;3.00;1.40;;;;;;;15.99;54.60;101049.91;5074651;28;20074;-80
2022/05/11 04:57:00;;;;;;;6.00;1.52;;;;;;;15.99;55.06;101053.38;5069321;28;20032;-80
2022/05/11 04:59:25;;;;;;;6.28;1.50;;;;;;;16.01;54.99;101050.72;5067057;28;20127;-80
2022/05/11 05:01:51;;;;;;;4.95;1.38;;;;;;;16.01;54.88;101045.47;5069372;28;20545;-80
2022/05/11 05:04:19;;;;;;;4.82;1.50;;;;;;;16.00;55.41;101041.97;5066546;28;20094;-80
2022/05/11 05:06:45;;;;;;;2.22;1.40;;;;;;;16.02;55.08;101052.41;5061570;28;20021;-80
2022/05/11 05:09:10;;;;;;;3.20;1.30;;;;;;;16.01;55.04;101050.72;5064396;28;20024;-80
2022/05/11 05:11:36;;;;;;;2.63;1.77;;;;;;;16.02;55.05;101055.03;5069254;28;20538;-80
2022/05/11 05:14:04;;;;;;;3.97;1.48;;;;;;;16.01;55.38;101043.66;5091187;28;20030;-80
2022/05/11 05:16:30;;;;;;;4.05;1.60;;;;;;;16.03;55.23;101059.38;5072259;28;20468;-80
2022/05/11 05:18:56;;;;;;;3.90;1.63;;;;;;;16.04;55.59;101053.19;5071427;28;20027;-80
2022/05/11 05:21:21;;;;;;;3.63;1.50;;;;;;;16.06;55.87;101053.94;5069320;28;20413;-80
2022/05/11 05:23:47;;;;;;;4.30;1.38;;;;;;;16.12;55.43;101048.44;5071599;28;20066;-80
2022/05/11 05:26:12;;;;;;;4.82;1.70;;;;;;;16.16;55.42;101050.00;5071537;28;20028;-80
2022/05/11 05:31:21;;;;;;;5.82;1.80;;;;;;;16.28;55.50;101066.09;5071254;28;20506;-80
2022/05/11 05:33:48;;;;;;;6.07;1.60;;;;;;;16.32;55.38;101059.78;5070859;28;20048;-80
2022/05/11 05:36:14;;;;;;;6.43;1.58;;;;;;;16.37;55.20;101063.06;5070779;28;20037;-81
2022/05/11 05:38:39;;;;;;;3.38;1.50;;;;;;;16.41;55.09;101064.59;5066727;28;20435;-81
2022/05/11 05:41:06;;;;;;;2.75;1.48;;;;;;;16.44;55.00;101063.63;5069910;28;20028;-80
2022/05/11 05:43:32;;;;;;;4.72;1.60;;;;;;;16.45;54.72;101070.59;5071097;28;20032;-80
2022/05/11 05:45:57;;;;;;;2.75;1.70;;;;;;;16.45;54.82;101053.03;5071328;28;20150;-79
2022/05/11 05:48:23;;;;;;;2.38;1.35;;;;;;;16.46;54.80;101060.00;5067222;28;20036;-80
2022/05/11 05:50:49;;;;;;;5.05;1.63;;;;;;;16.48;54.70;101060.78;5069519;28;20096;-80
2022/05/11 05:53:19;;;;;;;2.92;1.45;;;;;;;16.49;55.01;101062.47;5067200;28;20051;-79
2022/05/11 05:55:49;;;;;;;5.07;1.65;;;;;;;16.49;54.94;101065.09;5073066;28;20031;-80
2022/05/11 05:58:15;;;;;;;4.55;1.80;;;;;;;16.52;54.53;101064.97;5067858;28;20497;-80
2022/05/11 06:00:41;;;;;;;2.55;1.73;;;;;;;16.54;54.24;101068.38;5068998;28;20065;-79
2022/05/11 06:03:06;;;;;;;5.63;1.75;;;;;;;16.58;54.59;101070.84;5067806;28;20111;-79
2022/05/11 06:05:31;;;;;;;4.38;1.60;;;;;;;16.57;53.57;101075.25;5072776;28;20039;-79
2022/05/11 06:07:57;;;;;;;3.55;1.85;;;;;;;16.54;54.01;101076.25;5070337;28;20024;-79
2022/05/11 06:10:25;;;;;;;5.30;1.65;;;;;;;16.54;54.68;101078.88;5073649;28;20190;-79
2022/05/11 06:12:51;;;;;;;6.57;1.67;;;;;;;16.57;54.38;101075.25;5072289;28;20027;-79
2022/05/11 06:15:17;;;;;;;5.22;2.00;;;;;;;16.59;54.19;101075.16;5074586;28;20036;-80
2022/05/11 06:17:42;;;;;;;3.50;1.73;;;;;;;16.63;53.62;101076.72;5073445;28;20024;-79
2022/05/11 06:20:09;;;;;;;8.10;1.92;;;;;;;16.64;54.06;101078.44;5074165;28;20570;-79
2022/05/11 06:22:36;;;;;;;6.78;1.80;;;;;;;16.65;53.65;101083.59;5070312;28;20033;-80
2022/05/11 06:25:02;;;;;;;4.63;1.85;;;;;;;16.69;53.27;101073.81;5073897;28;20021;-79
2022/05/11 06:27:29;;;;;;;5.90;1.83;;;;;;;16.72;52.71;101070.19;5070846;28;20032;-79
2022/05/11 06:29:56;;;;;;;5.35;1.70;;;;;;;16.73;53.11;101064.00;5074285;28;20103;-80
2022/05/11 06:32:22;;;;;;;4.57;1.70;;;;;;;16.75;53.48;101063.00;5070800;28;20035;-80
2022/05/11 06:34:48;;;;;;;4.50;1.67;;;;;;;16.78;51.72;101057.59;5074097;28;20099;-80
2022/05/11 06:37:13;;;;;;;8.52;1.58;;;;;;;16.81;52.40;101057.47;5086891;28;20028;-79
2022/05/11 06:39:39;;;;;;;3.95;1.65;;;;;;;16.85;51.80;101052.88;5076329;28;20119;-80
2022/05/11 06:42:08;;;;;;;4.45;1.40;;;;;;;16.89;51.08;101053.63;5071364;28;20022;-80
2022/05/11 06:44:34;;;;;;;4.43;1.80;;;;;;;16.92;50.84;101054.31;5073150;28;20029;-80
2022/05/11 06:47:00;;;;;;;3.63;1.40;;;;;;;16.96;51.45;101049.78;5073197;28;20071;-79
2022/05/11 06:49:25;;;;;;;2.63;1.50;;;;;;;16.99;51.30;101049.63;5074085;28;20428;-79
2022/05/11 06:51:51;;;;;;;7.03;1.45;;;;;;;17.00;50.91;101048.69;5072887;28;20028;-80
2022/05/11 06:59:44;;;;;;;3.03;1.35;;;;;;;17.11;49.36;101063.94;5072262;28;20408;-79
2022/05/11 07:02:09;;;;;;;6.13;1.75;;;;;;;17.13;49.99;101057.66;5072690;28;20028;-79
2022/05/11 07:04:37;;;;;;;4.95;1.70;;;;;;;17.21;49.50;101053.81;5072158;28;20024;-80
2022/05/11 07:07:03;;;;;;;4.22;1.35;;;;;;;17.29;49.32;101056.91;5070653;28;20469;-79
2022/05/11 07:09:33;;;;;;;7.20;1.85;;;;;;;17.42;50.24;101063.22;5072682;28;20020;-79
2022/05/11 07:12:18;;;;;;;6.35;1.45;;;;;;;17.53;49.04;101059.22;5067180;28;20519;-80
2022/05/11 07:14:44;;;;;;;4.55;1.60;;;;;;;17.57;48.91;101056.34;5078699;28;20055;-80
2022/05/11 07:17:10;;;;;;;4.25;1.45;;;;;;;17.63;49.25;101059.59;5067591;28;20032;-79
2022/05/11 07:19:41;;;;;;;3.97;1.60;;;;;;;17.64;49.26;101056.88;5064290;28;20024;-79
2022/05/11 07:22:06;;;;;;;7.22;1.45;;;;;;;17.64;49.19;101058.66;5069004;28;21489;-80
2022/05/11 07:24:31;;;;;;;9.63;1.80;;;;;;;17.60;49.60;101055.31;5065129;28;20124;-80
2022/05/11 07:26:56;;;;;;;6.38;1.65;;;;;;;17.58;49.85;101057.22;5078962;28;20094;-79
2022/05/11 07:29:22;;;;;;;5.90;1.70;;;;;;;17.60;50.38;101055.31;5070721;28;20078;-78
2022/05/11 07:31:48;;;;;;;2.38;1.25;;;;;;;17.66;51.15;101054.19;5067799;28;20032;-78
2022/05/11 07:34:13;;;;;;;5.35;1.42;;;;;;;17.72;49.66;101054.69;5072108;28;20531;-78
2022/05/11 07:36:38;;;;;;;6.05;1.80;;;;;;;17.77;49.61;101051.81;5071906;28;20037;-77
2022/05/11 07:39:04;;;;;;;5.47;1.60;;;;;;;17.82;50.35;101046.31;5069123;28;20074;-78
2022/05/11 07:41:29;;;;;;;6.72;1.67;;;;;;;17.83;49.40;101051.50;5069782;28;20476;-79
2022/05/11 07:43:55;;;;;;;3.53;1.58;;;;;;;17.85;49.51;101044.34;5065978;28;20493;-78
2022/05/11 07:46:21;;;;;;;6.32;1.80;;;;;;;17.90;48.92;101065.19;5070275;28;20031;-78
2022/05/11 07:48:47;;;;;;;5.07;1.65;;;;;;;17.90;49.22;101052.88;5069594;28;20103;-77
2022/05/11 07:51:13;;;;;;;7.22;1.90;;;;;;;17.95;49.38;101047.34;5076584;28;20067;-78
2022/05/11 07:53:38;;;;;;;9.55;1.80;;;;;;;17.98;49.98;101060.38;5074045;28;20539;-78
2022/05/11 08:01:32;;;;;;;4.43;1.70;;;;;;;18.07;48.37;101047.66;5061458;28;20515;-82
2022/05/11 08:03:57;;;;;;;3.70;1.50;;;;;;;18.08;48.98;101067.81;5065282;28;20029;-78
2022/05/11 08:06:23;;;;;;;5.22;1.83;;;;;;;18.13;48.04;101055.22;5057232;28;20020;-78
2022/05/11 08:08:49;;;;;;;4.28;1.60;;;;;;;18.12;48.17;101059.66;5070980;28;20016;-80
2022/05/11 08:11:14;;;;;;;7.35;1.73;;;;;;;18.13;48.28;101057.84;5064563;28;20091;-78
2022/05/11 08:13:40;;;;;;;6.53;1.60;;;;;;;18.12;48.51;101053.50;5068098;28;20503;-76
2022/05/11 08:16:05;;;;;;;6.93;1.73;;;;;;;18.14;47.93;101055.16;5055825;28;20485;-77
2022/05/11 08:18:30;;;;;;;3.70;1.42;;;;;;;18.18;47.65;101059.31;5065256;28;20509;-76
2022/05/11 08:20:56;;;;;;;5.25;1.42;;;;;;;18.27;46.66;101055.34;5071382;28;20487;-76
2022/05/11 08:23:22;;;;;;;6.72;1.70;;;;;;;18.32;46.70;101055.09;5061606;28;20024;-77
2022/05/11 08:25:49;;;;;;;9.23;1.80;;;;;;;18.34;48.09;101063.75;5067665;28;20351;-78
2022/05/11 08:28:20;;;;;;;4.22;1.63;;;;;;;18.38;47.71;101051.25;5072262;28;20032;-78
2022/05/11 08:33:32;;;;;;;5.70;1.80;;;;;;;18.39;47.38;101050.31;5070914;28;20279;-77
2022/05/11 08:36:04;;;;;;;5.38;2.00;;;;;;;18.41;47.60;101051.09;5067984;28;20388;-78
2022/05/11 08:38:32;;;;;;;10.02;2.08;;;;;;;18.41;47.18;101046.66;5069753;28;20020;-77
2022/05/11 08:41:06;;;;;;;6.75;2.00;;;;;;;18.43;46.96;101047.41;5060252;28;20035;-78
2022/05/11 08:43:34;;;;;;;5.10;1.75;;;;;;;18.42;47.04;101058.06;5064368;28;20047;-77
2022/05/11 08:46:11;;;;;;;4.18;1.98;;;;;;;18.35;46.96;101047.84;5060853;28;20430;-76
2022/05/11 08:48:59;;;;;;;12.55;2.53;;;;;;;18.38;47.31;101061.78;5062759;28;20024;-77
2022/05/11 08:51:46;;;;;;;5.63;2.10;;;;;;;18.35;47.35;101053.13;5063058;28;20555;-77
2022/05/11 08:54:32;;;;;;;6.35;2.10;;;;;;;18.38;46.46;101062.63;5079493;28;20028;-77
2022/05/11 08:56:58;;;;;;;7.38;2.20;;;;;;;18.34;46.05;101050.59;5060835;28;20475;-78
2022/05/11 08:59:29;;;;;;;6.68;1.88;;;;;;;18.33;47.23;101056.78;5065817;28;20032;-77
2022/05/11 09:02:01;;;;;;;5.05;2.03;;;;;;;18.32;46.46;101040.13;5063869;28;20119;-77
2022/05/11 09:04:58;;;;;;;10.15;2.33;;;;;;;18.37;47.04;101055.66;5060735;28;20048;-78
2022/05/11 09:07:24;;;;;;;12.88;2.50;;;;;;;18.40;46.60;101049.38;5058759;28;20127;-78
2022/05/11 09:09:53;;;;;;;5.30;2.20;;;;;;;18.41;46.81;101056.34;5065694;28;20095;-77
2022/05/11 09:12:20;;;;;;;8.18;2.00;;;;;;;18.43;47.32;101046.59;5057187;28;20025;-77
2022/05/11 09:14:51;;;;;;;5.45;2.33;;;;;;;18.44;46.68;101041.22;5058954;28;20024;-77
2022/05/11 09:17:29;;;;;;;8.75;2.40;;;;;;;18.44;46.48;101038.59;5061224;28;20024;-77
2022/05/11 09:20:02;;;;;;;8.45;2.10;;;;;;;18.48;47.23;101028.72;5065196;28;20498;-76
2022/05/11 09:22:29;;;;;;;6.53;1.90;;;;;;;18.54;46.83;101032.78;5060938;28;20048;-77
2022/05/11 09:25:00;;;;;;;5.60;2.10;;;;;;;18.56;46.80;101029.16;5063282;28;20037;-76
2022/05/11 09:27:26;;;;;;;;;;;;;;;18.60;47.22;101027.19;5071056;28;20499;-77
2022/05/11 09:30:24;;;;;;;4.93;2.08;;;;;;;18.56;47.04;101026.50;5073565;28;19913;-77
2022/05/11 09:33:22;;;;;;;6.20;2.30;;;;;;;18.59;47.18;101025.47;5064553;28;20028;-77
2022/05/11 09:35:47;;;;;;;5.78;2.00;;;;;;;18.63;46.25;101019.94;5065131;28;21083;-77
2022/05/11 09:38:19;;;;;;;5.55;2.15;;;;;;;18.68;46.95;101019.69;5069975;28;20028;-77
2022/05/11 09:40:58;;;;;;;;;;;;;;;18.73;46.93;101022.91;5067730;28;20032;-77
2022/05/11 09:43:46;;;;;;;6.55;2.15;;;;;;;18.76;47.05;101020.09;5067123;28;19916;-76
2022/05/11 09:46:17;;;;;;;6.85;2.20;;;;;;;18.82;46.54;101024.16;5067814;28;20021;-77
2022/05/11 09:48:54;;;;;;;;;;;;;;;18.86;46.91;101023.06;5068587;28;20076;-77
2022/05/11 09:51:38;;;;;;;8.45;2.28;;;;;;;18.87;46.83;101011.56;5067286;28;20364;-77
2022/05/11 09:54:18;;;;;;;6.90;2.30;;;;;;;18.91;46.59;101021.00;5060353;28;20043;-78
2022/05/11 09:56:53;;;;;;;7.50;2.25;;;;;;;18.96;46.47;101018.13;5067260;28;20445;-76
2022/05/11 09:59:31;;;;;;;5.00;2.20;;;;;;;18.98;46.67;101012.75;5065211;28;20121;-77
2022/05/11 10:02:24;;;;;;;4.43;2.22;;;;;;;18.99;46.76;101017.09;5064593;28;20380;-76
2022/05/11 10:05:19;;;;;;;4.47;2.05;;;;;;;19.03;46.37;101011.56;5077913;28;20025;-77
2022/05/11 10:07:49;;;;;;;5.97;2.63;;;;;;;19.02;45.92;101014.28;5071459;28;20021;-77
2022/05/11 10:10:24;;;;;;;7.32;2.40;;;;;;;19.05;46.48;101007.03;5070963;28;20049;-76
2022/05/11 10:12:51;;;;;;;7.30;2.38;;;;;;;19.11;46.60;101011.94;5081495;28;20489;-77
2022/05/11 10:24:10;;;;;;;6.50;2.00;;;;;;;19.42;46.46;101006.63;5068251;28;20059;-76
2022/05/11 10:27:00;;;;;;;6.95;2.28;;;;;;;19.45;47.02;101011.72;5064439;28;20107;-77
2022/05/11 10:29:51;;;;;;;7.85;2.50;;;;;;;19.45;46.19;101001.19;5067931;28;20111;-77
2022/05/11 10:32:31;;;;;;;9.73;2.30;;;;;;;19.49;46.48;101005.31;5078556;28;20028;-78
2022/05/11 10:35:17;;;;;;;4.53;2.03;;;;;;;19.51;46.19;101003.44;5068354;28;20028;-77
2022/05/11 10:38:04;;;;;;;7.32;2.15;;;;;;;19.53;45.89;100998.06;5060756;28;20426;-77
2022/05/11 10:40:40;;;;;;;8.25;2.22;;;;;;;19.52;45.37;100994.56;5064606;28;20040;-77
2022/05/11 10:43:11;;;;;;;7.30;2.30;;;;;;;19.48;45.98;100987.78;5063520;28;20445;-77
2022/05/11 10:45:57;;;;;;;8.02;2.38;;;;;;;19.50;46.13;100980.63;5061996;28;20934;-79
2022/05/11 10:48:50;;;;;;;6.38;2.20;;;;;;;19.51;46.28;100978.84;5071145;28;20485;-78
2022/05/11 10:51:50;;;;;;;6.28;2.03;;;;;;;19.54;46.19;100974.22;5068881;28;20043;-76
2022/05/11 10:54:34;;;;;;;4.78;1.98;;;;;;;19.51;45.68;100977.03;5061034;28;20032;-78
2022/05/11 10:57:10;;;;;;;9.85;2.35;;;;;;;19.51;45.91;100979.69;5062905;28;20040;-77
2022/05/11 11:00:03;;;;;;;5.57;2.10;;;;;;;19.56;45.55;100967.06;5070006;28;20046;-78
2022/05/11 11:02:38;;;;;;;9.98;2.20;;;;;;;19.61;45.60;100968.56;5057793;28;20099;-77
2022/05/11 11:05:16;;;;;;;5.10;2.22;;;;;;;19.66;45.80;100969.09;5067130;28;20028;-76
2022/05/11 11:07:52;;;;;;;7.30;2.50;;;;;;;19.72;45.82;100971.38;5063036;28;20058;-77
2022/05/11 11:10:22;;;;;;;8.02;2.63;;;;;;;19.75;45.03;100960.63;5064699;28;20507;-76
2022/05/11 11:12:54;;;;;;;6.40;2.45;;;;;;;19.74;45.36;100953.66;5062779;28;20101;-77
2022/05/11 11:15:23;;;;;;;8.05;2.30;;;;;;;19.78;44.17;100960.44;5065921;28;20083;-77
2022/05/11 11:17:50;;;;;;;8.57;2.20;;;;;;;19.82;43.91;100951.38;5064032;28;20063;-79
2022/05/11 11:20:19;;;;;;;10.18;2.10;;;;;;;19.87;43.25;100953.78;5065896;28;20036;-77
2022/05/11 11:23:22;;;;;;;7.90;1.83;;;;;;;19.99;44.57;100957.41;5064136;28;20032;-78
2022/05/11 11:25:52;;;;;;;8.00;1.85;;;;;;;20.10;44.33;100959.34;4992194;28;20037;-77
2022/05/11 11:28:24;;;;;;;4.60;1.77;;;;;;;20.20;42.40;100970.19;5009268;28;20139;-78
2022/05/11 11:31:09;;;;;;;5.57;2.13;;;;;;;20.21;43.12;100948.09;5041916;28;20060;-78
2022/05/11 11:33:54;;;;;;;7.05;2.20;;;;;;;20.22;43.42;100947.16;5056339;28;20044;-78
2022/05/11 11:36:28;;;;;;;9.00;2.17;;;;;;;20.25;43.22;100942.50;5067342;28;20090;-78
2022/05/11 11:38:58;;;;;;;5.05;1.95;;;;;;;20.29;43.31;100943.19;5067084;28;20052;-77
2022/05/11 11:41:28;;;;;;;5.63;2.28;;;;;;;20.35;43.72;100934.00;5062312;28;20123;-77
2022/05/11 11:43:57;;;;;;;5.95;2.40;;;;;;;20.39;44.33;100938.16;5070611;28;20029;-77
2022/05/11 11:46:32;;;;;;;5.07;2.53;;;;;;;20.34;43.82;100930.50;5067857;28;20013;-78
2022/05/11 11:49:21;;;;;;;5.15;2.25;;;;;;;20.30;44.12;100923.75;5066956;28;20044;-77
2022/05/11 11:52:07;;;;;;;6.15;2.30;;;;;;;20.23;44.51;100931.22;5063823;28;20127;-78
2022/05/11 11:54:44;;;;;;;6.85;2.20;;;;;;;20.25;45.01;100920.53;5066106;28;20036;-78
2022/05/11 11:57:13;;;;;;;6.25;1.88;;;;;;;20.32;43.65;100922.69;5060273;28;20402;-79
2022/05/11 11:59:44;;;;;;;7.05;2.17;;;;;;;20.44;42.02;100934.25;5055443;28;20035;-78
2022/05/11 12:02:22;;;;;;;;;;;;;;;20.54;43.06;100926.56;5062105;28;20894;-78
2022/05/11 12:05:00;;;;;;;3.53;1.50;;;;;;;20.55;42.59;100919.47;5056916;28;19920;-79
2022/05/11 12:16:10;;;;;;;6.68;1.73;;;;;;;20.79;41.92;100908.22;5058058;28;20044;-79
2022/05/11 12:18:38;;;;;;;8.27;2.33;;;;;;;20.82;41.76;100898.28;5057926;28;20032;-78
2022/05/11 12:21:29;;;;;;;6.43;1.67;;;;;;;20.88;43.45;100897.00;5060001;28;20197;-79